Time;durP1;ratioP1;P1;durP2;ratioP2;P2;SDS_P1;SDS_P2;PMS_P1;PMS_P2;Temp;Humidity;BMP_temperature;BMP_pressure;BME280_temperature;BME280_humidity;BME280_pressure;Samples;Min_cycle;Max_cycle;Signal;HPM_P1;HPM_P2
2023/08/11 00:01:40;;;;;;;8.50;3.17;;;17.20;99.90;;;;;;5018835;28;20032;-67
2023/08/11 00:04:06;;;;;;;5.70;2.10;;;17.10;99.90;;;;;;5019851;28;20072;-67
2023/08/11 00:06:32;;;;;;;4.60;2.00;;;17.20;99.90;;;;;;5018803;28;20087;-67
2023/08/11 00:08:58;;;;;;;5.72;2.53;;;17.10;99.90;;;;;;5020283;28;20049;-68
2023/08/11 00:11:24;;;;;;;5.65;2.38;;;17.20;99.90;;;;;;5019152;28;20061;-67
2023/08/11 00:13:50;;;;;;;4.07;2.10;;;17.30;99.90;;;;;;5018147;28;20046;-67
2023/08/11 00:16:16;;;;;;;6.40;2.72;;;17.30;99.90;;;;;;5019749;28;20032;-67
2023/08/11 00:18:41;;;;;;;6.15;2.03;;;17.20;99.90;;;;;;5018468;28;20018;-67
2023/08/11 00:21:07;;;;;;;4.97;1.83;;;17.30;99.90;;;;;;5018588;28;20060;-67
2023/08/11 00:23:35;;;;;;;6.60;1.80;;;17.30;99.90;;;;;;5018756;28;20041;-67
2023/08/11 00:26:01;;;;;;;6.35;2.33;;;17.30;99.90;;;;;;5018265;28;20059;-67
2023/08/11 00:28:26;;;;;;;3.95;2.05;;;17.30;99.90;;;;;;5019338;28;20101;-67
2023/08/11 00:30:53;;;;;;;6.35;2.33;;;17.20;99.90;;;;;;5019190;28;20084;-67
2023/08/11 00:33:18;;;;;;;2.50;1.60;;;17.20;99.90;;;;;;5019200;28;20050;-67
2023/08/11 00:35:44;;;;;;;6.60;1.98;;;17.10;99.90;;;;;;5018227;28;20061;-67
2023/08/11 00:38:10;;;;;;;5.82;1.95;;;17.10;99.90;;;;;;5018030;28;20026;-67
2023/08/11 00:40:36;;;;;;;3.85;1.77;;;17.10;99.90;;;;;;5018219;28;20029;-67
2023/08/11 00:43:02;;;;;;;4.07;2.10;;;17.00;99.90;;;;;;5019496;28;20018;-67
2023/08/11 00:45:28;;;;;;;4.13;2.13;;;17.00;99.90;;;;;;5017975;28;20025;-67
2023/08/11 00:47:54;;;;;;;6.88;1.92;;;17.00;99.90;;;;;;5017791;28;20025;-67
2023/08/11 00:50:19;;;;;;;5.22;1.80;;;17.00;99.90;;;;;;5018496;28;20032;-67
2023/08/11 00:52:45;;;;;;;11.95;2.50;;;16.90;99.90;;;;;;5018250;28;20076;-67
2023/08/11 00:55:12;;;;;;;5.28;2.00;;;16.90;99.90;;;;;;5018259;28;20072;-67
2023/08/11 00:57:38;;;;;;;6.38;2.17;;;17.00;99.90;;;;;;5018724;28;20033;-67
2023/08/11 01:00:15;;;;;;;8.85;2.03;;;17.00;99.90;;;;;;5018015;28;20022;-67
2023/08/11 01:02:42;;;;;;;3.97;1.80;;;17.00;99.90;;;;;;5017670;28;20029;-67
2023/08/11 01:05:09;;;;;;;5.53;2.03;;;16.90;99.90;;;;;;5018612;28;20018;-67
2023/08/11 01:07:51;;;;;;;3.35;2.05;;;16.90;99.90;;;;;;5018427;28;20054;-67
2023/08/11 01:10:36;;;;;;;6.10;2.35;;;16.90;99.90;;;;;;5017928;28;20026;-67
2023/08/11 01:13:12;;;;;;;4.53;2.15;;;16.80;99.90;;;;;;5017470;28;20022;-67
2023/08/11 01:15:40;;;;;;;6.00;1.80;;;16.80;99.90;;;;;;5017455;28;20029;-67
2023/08/11 01:18:08;;;;;;;6.03;1.90;;;16.80;99.90;;;;;;5018099;28;20022;-67
2023/08/11 01:20:35;;;;;;;6.95;2.00;;;16.70;99.90;;;;;;5017359;28;20084;-67
2023/08/11 01:23:02;;;;;;;4.30;1.73;;;16.80;99.90;;;;;;5018348;28;20080;-68
2023/08/11 01:25:29;;;;;;;5.75;2.22;;;16.80;99.90;;;;;;5018167;28;20030;-67
2023/08/11 01:27:56;;;;;;;5.63;2.10;;;16.90;99.90;;;;;;5018071;28;20030;-67
2023/08/11 01:30:23;;;;;;;5.10;2.67;;;17.00;99.90;;;;;;5017210;28;20026;-67
2023/08/11 01:32:51;;;;;;;6.15;2.22;;;17.00;99.90;;;;;;5018196;28;20088;-67
2023/08/11 01:35:18;;;;;;;6.30;1.77;;;16.90;99.90;;;;;;5017098;28;20057;-67
2023/08/11 01:37:44;;;;;;;5.63;2.42;;;16.80;99.90;;;;;;5017849;28;20085;-67
2023/08/11 01:40:10;;;;;;;4.82;2.28;;;16.70;99.90;;;;;;5018222;28;20097;-67
2023/08/11 01:42:40;;;;;;;5.15;2.20;;;16.60;99.90;;;;;;5018231;28;20076;-67
2023/08/11 01:45:08;;;;;;;7.00;2.20;;;16.50;99.90;;;;;;5017836;28;20026;-67
2023/08/11 01:47:39;;;;;;;5.28;2.15;;;16.40;99.90;;;;;;5017675;28;20056;-67
2023/08/11 01:50:07;;;;;;;7.50;2.42;;;16.30;99.90;;;;;;5016907;28;20053;-67
2023/08/11 01:52:40;;;;;;;7.28;2.30;;;16.40;99.90;;;;;;5017212;28;20030;-67
2023/08/11 01:55:09;;;;;;;6.03;2.13;;;16.30;99.90;;;;;;5016751;28;20033;-67
2023/08/11 01:57:35;;;;;;;4.53;2.38;;;16.40;99.90;;;;;;5016709;28;20026;-67
2023/08/11 02:00:00;;;;;;;5.88;1.90;;;16.40;99.90;;;;;;5016754;28;20128;-67
2023/08/11 02:02:26;;;;;;;8.63;2.30;;;16.30;99.90;;;;;;5016811;28;20168;-67
2023/08/11 02:04:52;;;;;;;9.10;2.10;;;16.30;99.90;;;;;;5016743;28;20104;-67
2023/08/11 02:07:17;;;;;;;3.90;2.00;;;16.30;99.90;;;;;;5016871;28;20122;-67
2023/08/11 02:09:43;;;;;;;5.80;2.33;;;16.20;99.90;;;;;;5017237;28;20030;-67
2023/08/11 02:12:08;;;;;;;2.30;1.88;;;16.20;99.90;;;;;;5016582;28;20034;-67
2023/08/11 02:14:34;;;;;;;4.00;1.80;;;16.20;99.90;;;;;;5016537;28;20022;-67
2023/08/11 02:16:59;;;;;;;2.85;2.10;;;16.20;99.90;;;;;;5017222;28;20029;-67
2023/08/11 02:19:25;;;;;;;9.45;2.00;;;16.20;99.90;;;;;;5016829;28;20025;-67
2023/08/11 02:21:50;;;;;;;3.30;2.08;;;16.10;99.90;;;;;;5016581;28;20022;-67
2023/08/11 02:24:16;;;;;;;5.72;2.38;;;16.10;99.90;;;;;;5017476;28;20219;-67
2023/08/11 02:26:42;;;;;;;4.55;1.92;;;16.10;99.90;;;;;;5017234;28;20030;-67
2023/08/11 02:29:08;;;;;;;6.80;2.08;;;16.10;99.90;;;;;;5016838;28;20034;-67
2023/08/11 02:31:33;;;;;;;4.95;2.28;;;16.10;99.90;;;;;;5017209;28;20061;-67
2023/08/11 02:34:00;;;;;;;9.23;2.47;;;16.10;99.90;;;;;;5016588;28;20022;-67
2023/08/11 02:36:26;;;;;;;4.20;1.85;;;16.20;99.90;;;;;;5020030;28;20022;-67
2023/08/11 02:38:51;;;;;;;8.88;2.05;;;16.10;99.90;;;;;;5020615;28;20028;-67
2023/08/11 02:41:18;;;;;;;7.22;2.50;;;16.10;99.90;;;;;;5021068;28;20086;-67
2023/08/11 02:43:44;;;;;;;5.50;2.50;;;16.10;99.90;;;;;;5021077;28;20022;-67
2023/08/11 02:46:09;;;;;;;5.15;2.40;;;16.10;99.90;;;;;;5020674;28;20112;-67
2023/08/11 02:48:36;;;;;;;4.15;2.22;;;16.10;99.90;;;;;;5020124;28;20125;-67
2023/08/11 02:51:03;;;;;;;7.97;2.30;;;16.00;99.90;;;;;;5020792;28;20087;-67
2023/08/11 02:53:28;;;;;;;4.88;2.28;;;15.90;99.90;;;;;;5020977;28;20032;-67
2023/08/11 02:55:54;;;;;;;6.25;2.40;;;15.90;99.90;;;;;;5019926;28;20030;-67
2023/08/11 02:58:19;;;;;;;4.13;2.33;;;15.80;99.90;;;;;;5020810;28;20022;-67
2023/08/11 03:00:46;;;;;;;5.90;2.03;;;15.80;99.90;;;;;;5020013;28;20018;-67
2023/08/11 03:03:12;;;;;;;3.72;2.05;;;15.70;99.90;;;;;;5020948;28;20022;-67
2023/08/11 03:05:38;;;;;;;6.82;2.03;;;15.70;99.90;;;;;;5020302;28;20033;-67
2023/08/11 03:08:04;;;;;;;6.97;2.97;;;15.80;99.90;;;;;;5019546;28;20041;-67
2023/08/11 03:10:29;;;;;;;4.78;2.28;;;15.80;99.90;;;;;;5020289;28;20069;-67
2023/08/11 03:12:55;;;;;;;6.72;2.60;;;15.70;99.90;;;;;;5020244;28;20045;-67
2023/08/11 03:15:21;;;;;;;4.63;2.00;;;15.70;99.90;;;;;;5019571;28;20026;-67
2023/08/11 03:17:47;;;;;;;7.20;2.72;;;15.70;99.90;;;;;;5019687;28;20037;-67
2023/08/11 03:20:12;;;;;;;6.40;2.75;;;15.70;99.90;;;;;;5019869;28;20028;-67
2023/08/11 03:22:39;;;;;;;5.50;2.22;;;15.70;99.90;;;;;;5019615;28;20076;-67
2023/08/11 03:25:07;;;;;;;5.63;2.20;;;15.80;99.90;;;;;;5020065;28;20088;-67
2023/08/11 03:27:34;;;;;;;3.45;2.25;;;15.70;99.90;;;;;;5019419;28;20049;-67
2023/08/11 03:29:59;;;;;;;4.20;2.10;;;15.70;99.90;;;;;;5019381;28;20018;-67
2023/08/11 03:32:25;;;;;;;3.97;2.10;;;15.70;99.90;;;;;;5019686;28;20025;-67
2023/08/11 03:34:50;;;;;;;3.97;2.05;;;15.70;99.90;;;;;;5020313;28;20105;-67
2023/08/11 03:37:16;;;;;;;6.75;2.28;;;15.60;99.90;;;;;;5020683;28;20053;-67
2023/08/11 03:39:41;;;;;;;17.15;2.30;;;15.70;99.90;;;;;;5019259;28;20064;-67
2023/08/11 03:42:07;;;;;;;4.50;1.75;;;15.60;99.90;;;;;;5020036;28;20033;-67
2023/08/11 03:44:32;;;;;;;6.18;1.90;;;15.50;99.90;;;;;;5019289;28;20022;-67
2023/08/11 03:46:58;;;;;;;6.10;2.45;;;15.40;99.90;;;;;;5019663;28;20079;-67
2023/08/11 03:49:24;;;;;;;5.88;1.83;;;15.40;99.90;;;;;;5019355;28;20026;-67
2023/08/11 03:51:49;;;;;;;5.68;2.42;;;15.40;99.90;;;;;;5019040;28;20084;-67
2023/08/11 03:54:15;;;;;;;4.53;1.70;;;15.20;99.90;;;;;;5019046;28;20030;-67
2023/08/11 03:56:40;;;;;;;3.63;1.98;;;15.20;99.90;;;;;;5019766;28;20061;-67
2023/08/11 03:59:06;;;;;;;4.63;2.15;;;15.10;99.90;;;;;;5018880;28;20022;-67
2023/08/11 04:01:31;;;;;;;4.00;1.75;;;15.10;99.90;;;;;;5020032;28;20084;-67
2023/08/11 04:03:57;;;;;;;3.33;1.77;;;15.10;99.90;;;;;;5019984;28;20035;-67
2023/08/11 04:06:28;;;;;;;3.50;1.50;;;15.10;99.90;;;;;;5019065;28;20030;-67
2023/08/11 04:08:54;;;;;;;;;;;15.20;99.90;;;;;;5019800;28;20068;-67
2023/08/11 04:11:19;;;;;;;3.70;1.90;;;15.20;99.90;;;;;;5018680;28;19906;-67
2023/08/11 04:13:45;;;;;;;3.28;1.90;;;15.20;99.90;;;;;;5018577;28;20076;-67
2023/08/11 04:16:10;;;;;;;6.60;1.65;;;15.20;99.90;;;;;;5018437;28;20026;-67
2023/08/11 04:18:36;;;;;;;5.00;2.10;;;15.30;99.90;;;;;;5019371;28;20025;-67
2023/08/11 04:21:01;;;;;;;6.03;2.13;;;15.30;99.90;;;;;;5019849;28;20109;-67
2023/08/11 04:23:27;;;;;;;3.03;2.42;;;15.20;99.90;;;;;;5019546;28;20029;-67
2023/08/11 04:25:53;;;;;;;6.53;2.17;;;15.20;99.90;;;;;;5019245;28;20026;-67
2023/08/11 04:28:19;;;;;;;4.80;2.35;;;15.30;99.90;;;;;;5018315;28;20030;-67
2023/08/11 04:30:44;;;;;;;6.18;2.28;;;15.30;99.90;;;;;;5018851;28;20056;-67
2023/08/11 04:33:12;;;;;;;3.50;2.00;;;15.30;99.90;;;;;;5019961;28;20026;-67
2023/08/11 04:35:38;;;;;;;8.77;2.05;;;15.30;99.90;;;;;;5019187;28;20026;-67
2023/08/11 04:38:04;;;;;;;5.28;2.45;;;15.20;99.90;;;;;;5018516;28;20101;-67
2023/08/11 04:40:29;;;;;;;7.43;2.58;;;15.30;99.90;;;;;;5019046;28;20068;-67
2023/08/11 04:42:56;;;;;;;4.72;2.28;;;15.30;99.90;;;;;;5019203;28;20026;-67
2023/08/11 04:45:21;;;;;;;5.75;2.65;;;15.30;99.90;;;;;;5019157;28;20018;-67
2023/08/11 04:47:47;;;;;;;21.52;3.45;;;15.20;99.90;;;;;;5018326;28;20040;-67
2023/08/11 04:50:13;;;;;;;5.72;2.92;;;15.30;99.90;;;;;;5017917;28;20024;-67
2023/08/11 04:52:38;;;;;;;10.57;3.13;;;15.20;99.90;;;;;;5019059;28;20075;-67
2023/08/11 04:55:07;;;;;;;4.13;2.33;;;15.20;99.90;;;;;;5017785;28;20033;-67
2023/08/11 04:57:33;;;;;;;4.40;2.22;;;15.20;99.90;;;;;;5018257;28;20026;-68
2023/08/11 04:59:59;;;;;;;3.90;1.95;;;15.30;99.90;;;;;;5017903;28;20075;-67
2023/08/11 05:02:25;;;;;;;8.52;2.42;;;15.40;99.90;;;;;;5017727;28;20045;-67
2023/08/11 05:04:50;;;;;;;7.28;2.78;;;15.40;99.90;;;;;;5017765;28;20022;-67
2023/08/11 05:07:16;;;;;;;7.75;2.33;;;15.40;99.90;;;;;;5018706;28;20042;-67
2023/08/11 05:09:41;;;;;;;3.70;2.00;;;15.30;99.90;;;;;;5017593;28;20033;-67
2023/08/11 05:12:07;;;;;;;3.80;2.00;;;15.10;99.90;;;;;;5018513;28;20053;-67
2023/08/11 05:14:33;;;;;;;5.65;1.80;;;15.00;99.90;;;;;;5017602;28;20030;-67
2023/08/11 05:16:58;;;;;;;5.03;1.83;;;14.90;99.90;;;;;;5018150;28;20025;-67
2023/08/11 05:19:25;;;;;;;5.78;2.08;;;14.90;99.90;;;;;;5018793;28;20026;-67
2023/08/11 05:21:51;;;;;;;6.25;1.90;;;14.90;99.90;;;;;;5018398;28;20084;-67
2023/08/11 05:24:16;;;;;;;5.10;2.40;;;14.80;99.90;;;;;;5018299;28;20022;-67
2023/08/11 05:26:42;;;;;;;12.23;2.65;;;14.90;99.90;;;;;;5017289;28;20029;-67
2023/08/11 05:29:07;;;;;;;5.40;3.05;;;15.20;99.90;;;;;;5017219;28;20068;-67
2023/08/11 05:31:33;;;;;;;8.80;2.25;;;15.30;99.90;;;;;;5018032;28;20026;-67
2023/08/11 05:33:59;;;;;;;9.65;2.53;;;15.40;99.90;;;;;;5017231;28;20077;-67
2023/08/11 05:36:25;;;;;;;7.80;3.15;;;15.50;99.90;;;;;;5017397;28;20030;-67
2023/08/11 05:38:50;;;;;;;7.10;2.58;;;15.50;99.90;;;;;;5017352;28;20037;-67
2023/08/11 05:41:16;;;;;;;5.30;2.50;;;15.50;99.90;;;;;;5018034;28;20100;-67
2023/08/11 05:43:42;;;;;;;7.32;2.20;;;15.60;99.90;;;;;;5017146;28;20029;-67
2023/08/11 05:46:08;;;;;;;3.45;2.40;;;15.70;99.90;;;;;;5016921;28;20029;-67
2023/08/11 05:48:35;;;;;;;5.60;2.45;;;15.70;99.90;;;;;;5017017;28;20026;-67
2023/08/11 05:51:01;;;;;;;5.60;2.15;;;15.80;99.90;;;;;;5017746;28;20032;-67
2023/08/11 05:53:27;;;;;;;4.80;2.00;;;15.90;99.90;;;;;;5016830;28;20063;-67
2023/08/11 05:55:53;;;;;;;5.38;2.30;;;16.00;99.90;;;;;;5017552;28;20030;-67
2023/08/11 05:58:18;;;;;;;6.03;2.38;;;16.00;99.90;;;;;;5016638;28;20026;-67
2023/08/11 06:00:44;;;;;;;7.07;2.78;;;16.00;99.90;;;;;;5016752;28;20018;-67
2023/08/11 06:03:09;;;;;;;4.93;1.92;;;16.10;99.90;;;;;;5016801;28;20022;-67
2023/08/11 06:05:35;;;;;;;4.53;2.30;;;16.20;99.90;;;;;;5016676;28;20030;-67
2023/08/11 06:08:01;;;;;;;5.90;2.28;;;16.30;99.90;;;;;;5016445;28;20045;-67
2023/08/11 06:10:26;;;;;;;5.38;2.47;;;16.30;99.90;;;;;;5015692;28;20049;-67
2023/08/11 06:12:55;;;;;;;4.80;2.55;;;16.20;99.90;;;;;;5016575;28;20022;-67
2023/08/11 06:15:21;;;;;;;5.63;2.70;;;16.20;99.90;;;;;;5016639;28;20032;-67
2023/08/11 06:17:49;;;;;;;5.22;1.98;;;16.30;99.90;;;;;;5016364;28;20022;-67
2023/08/11 06:20:18;;;;;;;6.47;2.28;;;16.40;99.90;;;;;;5016408;28;20022;-67
2023/08/11 06:22:45;;;;;;;6.13;2.20;;;16.40;99.90;;;;;;5016443;28;20040;-67
2023/08/11 06:25:10;;;;;;;3.50;2.15;;;16.40;99.90;;;;;;5016952;28;20026;-67
2023/08/11 06:27:36;;;;;;;9.15;3.15;;;16.50;99.90;;;;;;5016361;28;20053;-67
2023/08/11 06:30:05;;;;;;;3.63;2.40;;;16.50;99.90;;;;;;5017320;28;20069;-67
2023/08/11 06:32:31;;;;;;;7.60;2.35;;;16.70;99.90;;;;;;5017146;28;20105;-68
2023/08/11 06:34:56;;;;;;;3.55;1.85;;;16.80;99.90;;;;;;5016304;28;20053;-67
2023/08/11 06:37:22;;;;;;;5.15;2.10;;;16.90;99.90;;;;;;5017473;28;20030;-67
2023/08/11 06:39:48;;;;;;;2.95;1.90;;;17.00;99.90;;;;;;5017156;28;20081;-67
2023/08/11 06:42:13;;;;;;;4.70;2.33;;;17.00;99.90;;;;;;5017678;28;20097;-67
2023/08/11 06:44:39;;;;;;;6.00;2.40;;;17.00;99.90;;;;;;5016450;28;20113;-68
2023/08/11 06:47:04;;;;;;;7.97;2.15;;;17.10;99.90;;;;;;5016940;28;20030;-68
2023/08/11 06:49:30;;;;;;;2.80;1.83;;;17.20;99.90;;;;;;5016659;28;20172;-68
2023/08/11 06:51:55;;;;;;;6.43;2.22;;;17.20;99.90;;;;;;5017326;28;20026;-67
2023/08/11 06:54:22;;;;;;;9.38;1.73;;;17.20;99.90;;;;;;5017145;28;20029;-67
2023/08/11 06:56:47;;;;;;;5.25;2.05;;;17.10;99.90;;;;;;5016089;28;20076;-67
2023/08/11 06:59:13;;;;;;;5.88;1.80;;;17.30;99.90;;;;;;5016129;28;20015;-67
2023/08/11 07:01:38;;;;;;;5.72;2.00;;;17.30;99.90;;;;;;5017006;28;20072;-67
2023/08/11 07:04:04;;;;;;;6.30;1.63;;;17.40;99.90;;;;;;5016962;28;20030;-67
2023/08/11 07:06:30;;;;;;;6.13;2.05;;;17.50;99.90;;;;;;5016990;28;20037;-68
2023/08/11 07:08:55;;;;;;;6.00;2.22;;;17.70;99.90;;;;;;5015849;28;20034;-68
2023/08/11 07:11:21;;;;;;;5.45;2.40;;;17.80;99.90;;;;;;5016027;28;20061;-68
2023/08/11 07:13:46;;;;;;;9.13;2.20;;;17.80;99.90;;;;;;5016848;28;20030;-68
2023/08/11 07:16:12;;;;;;;2.92;1.65;;;18.00;99.90;;;;;;5016745;28;20034;-68
2023/08/11 07:18:37;;;;;;;5.07;1.70;;;18.10;99.90;;;;;;5016964;28;20029;-68
2023/08/11 07:21:03;;;;;;;6.43;2.30;;;18.20;99.90;;;;;;5016526;28;20029;-68
2023/08/11 07:23:28;;;;;;;7.38;1.60;;;18.20;99.90;;;;;;5020536;28;20084;-68
2023/08/11 07:25:54;;;;;;;7.28;2.03;;;18.20;99.90;;;;;;5019985;28;20072;-68
2023/08/11 07:28:19;;;;;;;5.20;1.63;;;18.10;99.90;;;;;;5019823;28;20091;-67
2023/08/11 07:30:46;;;;;;;2.92;1.77;;;18.00;99.90;;;;;;5019889;28;20029;-67
2023/08/11 07:33:11;;;;;;;7.18;2.83;;;18.00;99.90;;;;;;5019394;28;20120;-67
2023/08/11 07:35:37;;;;;;;8.23;2.15;;;18.10;99.90;;;;;;5019334;28;20119;-68
2023/08/11 07:38:02;;;;;;;4.28;2.05;;;18.20;99.90;;;;;;5020543;28;20018;-68
2023/08/11 07:40:29;;;;;;;8.10;2.00;;;18.30;99.90;;;;;;5020161;28;20027;-68
2023/08/11 07:42:54;;;;;;;9.43;2.30;;;18.40;99.90;;;;;;5020482;28;20026;-67
2023/08/11 07:45:20;;;;;;;6.72;2.17;;;18.40;99.90;;;;;;5020142;28;20033;-68
2023/08/11 07:47:46;;;;;;;8.18;2.50;;;18.60;99.90;;;;;;5020026;28;20105;-68
2023/08/11 07:50:11;;;;;;;2.65;1.80;;;18.80;99.90;;;;;;5019965;28;20018;-68
2023/08/11 07:52:37;;;;;;;6.10;1.90;;;19.00;99.90;;;;;;5020017;28;20018;-68
2023/08/11 07:55:03;;;;;;;3.80;1.60;;;19.20;99.90;;;;;;5020266;28;20026;-68
2023/08/11 07:57:28;;;;;;;4.88;2.13;;;19.20;99.90;;;;;;5019326;28;20030;-68
2023/08/11 07:59:54;;;;;;;5.53;1.80;;;19.20;99.90;;;;;;5019025;28;20022;-68
2023/08/11 08:02:19;;;;;;;9.75;2.40;;;19.40;99.90;;;;;;5020014;28;20018;-68
2023/08/11 08:04:45;;;;;;;4.93;2.25;;;19.50;99.90;;;;;;5018889;28;20025;-68
2023/08/11 08:07:10;;;;;;;5.60;2.10;;;19.50;99.90;;;;;;5019211;28;20088;-68
2023/08/11 08:09:38;;;;;;;3.47;2.10;;;19.40;99.90;;;;;;5019876;28;20021;-68
2023/08/11 08:12:04;;;;;;;3.20;2.17;;;19.40;99.90;;;;;;5019633;28;20024;-68
2023/08/11 08:14:30;;;;;;;6.32;2.30;;;19.40;99.90;;;;;;5019493;28;20117;-68
2023/08/11 08:16:58;;;;;;;6.68;2.35;;;19.70;99.90;;;;;;5018680;28;20022;-68
2023/08/11 08:19:23;;;;;;;4.65;2.45;;;20.20;99.90;;;;;;5019372;28;20022;-68
2023/08/11 08:21:49;;;;;;;4.07;1.73;;;20.40;99.90;;;;;;5018876;28;20018;-68
2023/08/11 08:24:15;;;;;;;5.65;2.38;;;20.50;99.90;;;;;;5018525;28;20056;-68
2023/08/11 08:26:41;;;;;;;5.30;2.20;;;20.60;99.90;;;;;;5018377;28;20057;-68
2023/08/11 08:29:07;;;;;;;5.45;2.10;;;20.60;99.90;;;;;;5019454;28;20026;-68
2023/08/11 08:31:32;;;;;;;7.55;2.17;;;20.50;99.90;;;;;;5018578;28;20029;-68
2023/08/11 08:33:59;;;;;;;7.88;2.03;;;20.60;99.90;;;;;;5017455;28;20025;-68
2023/08/11 08:36:24;;;;;;;5.00;2.28;;;20.80;99.90;;;;;;5019032;28;20052;-68
2023/08/11 08:38:50;;;;;;;7.10;2.00;;;20.90;99.90;;;;;;5018448;28;20018;-68
2023/08/11 08:41:20;;;;;;;7.15;2.00;;;20.90;99.90;;;;;;5018337;28;20095;-68
2023/08/11 08:43:47;;;;;;;5.72;2.33;;;20.80;99.90;;;;;;5019287;28;20053;-68
2023/08/11 08:46:15;;;;;;;8.90;2.58;;;21.10;99.90;;;;;;5018989;28;20037;-68
2023/08/11 08:48:52;;;;;;;3.55;2.05;;;21.30;99.90;;;;;;5017792;28;20053;-67
2023/08/11 08:51:18;;;;;;;4.22;2.50;;;21.60;99.90;;;;;;5019236;28;20167;-68
2023/08/11 08:53:44;;;;;;;7.63;2.35;;;21.70;99.90;;;;;;5018250;28;20025;-68
2023/08/11 08:56:10;;;;;;;3.35;2.22;;;21.80;99.90;;;;;;5018604;28;20053;-68
2023/08/11 08:58:36;;;;;;;9.02;2.20;;;22.00;99.90;;;;;;5017737;28;20018;-68
2023/08/11 09:01:03;;;;;;;3.55;2.25;;;21.90;99.90;;;;;;5017808;28;20037;-67
2023/08/11 09:03:30;;;;;;;4.50;2.30;;;22.10;99.90;;;;;;5018722;28;20029;-68
2023/08/11 09:05:57;;;;;;;5.28;2.40;;;22.20;99.90;;;;;;5017635;28;20034;-68
2023/08/11 09:08:22;;;;;;;9.40;2.20;;;22.10;99.90;;;;;;5017459;28;20069;-68
2023/08/11 09:10:48;;;;;;;3.72;1.95;;;22.10;99.90;;;;;;5017711;28;20029;-68
2023/08/11 09:13:15;;;;;;;3.97;2.60;;;22.20;99.90;;;;;;5017549;28;20026;-68
2023/08/11 09:15:42;;;;;;;4.32;2.42;;;22.30;99.90;;;;;;5018358;28;20018;-68
2023/08/11 09:18:07;;;;;;;5.28;2.20;;;22.30;99.90;;;;;;5018514;28;20022;-68
2023/08/11 09:20:35;;;;;;;4.70;2.45;;;22.60;99.90;;;;;;5017823;28;20022;-68
2023/08/11 09:23:04;;;;;;;4.45;2.47;;;22.80;99.90;;;;;;5018457;28;20030;-68
2023/08/11 09:25:31;;;;;;;3.28;2.03;;;22.80;99.90;;;;;;5017333;28;20029;-68
2023/08/11 09:27:58;;;;;;;5.28;2.35;;;22.90;99.90;;;;;;5018227;28;20022;-68
2023/08/11 09:30:28;;;;;;;3.58;2.13;;;23.00;99.90;;;;;;5017269;28;20022;-68
2023/08/11 09:32:53;;;;;;;3.95;1.95;;;23.20;99.90;;;;;;5018074;28;20030;-67
2023/08/11 09:35:23;;;;;;;5.13;2.53;;;23.40;99.90;;;;;;5018163;28;20030;-68
2023/08/11 09:37:50;;;;;;;3.13;2.15;;;23.40;99.90;;;;;;5017726;28;20062;-68
2023/08/11 09:40:16;;;;;;;5.35;2.40;;;23.50;99.90;;;;;;5017979;28;20026;-68
2023/08/11 09:42:42;;;;;;;4.30;2.20;;;23.50;99.90;;;;;;5016912;28;20018;-68
2023/08/11 09:45:09;;;;;;;3.83;2.53;;;23.60;99.90;;;;;;5017875;28;20075;-68
2023/08/11 09:47:35;;;;;;;4.95;2.10;;;23.70;99.90;;;;;;5016804;28;20030;-68
2023/08/11 09:50:00;;;;;;;4.38;2.10;;;23.80;99.90;;;;;;5016922;28;20037;-68
2023/08/11 09:52:27;;;;;;;2.97;2.00;;;23.90;99.90;;;;;;5016792;28;20053;-68
2023/08/11 09:54:55;;;;;;;3.65;1.95;;;24.00;99.90;;;;;;5017711;28;20030;-68
2023/08/11 09:57:22;;;;;;;5.90;2.03;;;24.10;99.90;;;;;;5016680;28;20030;-68
2023/08/11 09:59:50;;;;;;;4.38;2.83;;;24.30;99.90;;;;;;5016997;28;20030;-68
2023/08/11 10:02:20;;;;;;;3.45;2.10;;;24.30;99.90;;;;;;5016662;28;20120;-68
2023/08/11 10:04:56;;;;;;;3.60;2.78;;;24.10;99.90;;;;;;5017493;28;20029;-68
2023/08/11 10:07:24;;;;;;;3.38;2.10;;;24.30;99.90;;;;;;5016641;28;20099;-68
2023/08/11 10:09:51;;;;;;;6.18;2.50;;;24.40;99.90;;;;;;5017404;28;20021;-68
2023/08/11 10:12:18;;;;;;;5.43;2.50;;;24.70;99.90;;;;;;5016626;28;20018;-68
2023/08/11 10:14:44;;;;;;;6.95;2.35;;;25.10;99.90;;;;;;5016499;28;20029;-68
2023/08/11 10:17:12;;;;;;;3.80;2.13;;;25.30;99.90;;;;;;5017217;28;20038;-67
2023/08/11 10:19:38;;;;;;;8.55;2.15;;;25.40;99.90;;;;;;5017484;28;20018;-67
2023/08/11 10:22:04;;;;;;;5.07;2.05;;;25.40;99.90;;;;;;5016652;28;20116;-67
2023/08/11 10:24:31;;;;;;;5.30;2.00;;;25.50;99.90;;;;;;5016543;28;20161;-68
2023/08/11 10:26:56;;;;;;;3.20;2.50;;;25.50;99.90;;;;;;5016439;28;20037;-68
2023/08/11 10:29:22;;;;;;;3.75;2.00;;;25.60;99.90;;;;;;5016498;28;20022;-68
2023/08/11 10:31:56;;;;;;;6.32;2.13;;;25.70;99.90;;;;;;5016386;28;20046;-68
2023/08/11 10:34:23;;;;;;;3.88;2.25;;;25.90;99.90;;;;;;5017161;28;20032;-68
2023/08/11 10:36:49;;;;;;;6.35;2.20;;;26.30;99.90;;;;;;5016192;28;20116;-68
2023/08/11 10:39:18;;;;;;;3.63;1.92;;;26.70;99.90;;;;;;5016378;28;20026;-68
2023/08/11 10:41:45;;;;;;;5.70;2.80;;;26.90;99.90;;;;;;5017255;28;20025;-68
2023/08/11 10:44:10;;;;;;;8.45;2.75;;;27.20;99.90;;;;;;5016136;28;20093;-68
2023/08/11 10:46:36;;;;;;;4.43;2.15;;;27.40;99.90;;;;;;5017147;28;20070;-68
2023/08/11 10:49:07;;;;;;;3.50;2.45;;;27.40;99.90;;;;;;5016088;28;20018;-68
2023/08/11 10:51:34;;;;;;;4.75;2.05;;;27.90;99.90;;;;;;5016092;28;20026;-68
2023/08/11 10:54:10;;;;;;;4.50;2.10;;;28.70;99.90;;;;;;5017033;28;20034;-68
2023/08/11 10:56:41;;;;;;;2.58;1.98;;;29.80;99.90;;;;;;5017580;28;20048;-68
2023/08/11 10:59:21;;;;;;;5.07;2.03;;;29.30;99.90;;;;;;5020928;28;20025;-68
2023/08/11 11:01:49;;;;;;;3.58;2.05;;;29.00;99.90;;;;;;5020029;28;20053;-68
2023/08/11 11:04:17;;;;;;;2.30;2.10;;;28.90;99.90;;;;;;5020784;28;20021;-68
2023/08/11 11:06:47;;;;;;;9.10;2.47;;;29.60;99.90;;;;;;5020071;28;20076;-68
2023/08/11 11:09:14;;;;;;;7.00;2.38;;;29.90;99.90;;;;;;5020154;28;20037;-68
2023/08/11 11:11:40;;;;;;;3.17;1.73;;;30.50;99.90;;;;;;5019860;28;20030;-68
2023/08/11 11:14:07;;;;;;;4.47;2.20;;;31.20;99.90;;;;;;5020662;28;20033;-68
2023/08/11 11:16:33;;;;;;;2.95;2.05;;;31.90;99.90;;;;;;5020810;28;20033;-68
2023/08/11 11:19:03;;;;;;;4.22;2.38;;;32.30;99.10;;;;;;5020459;28;20030;-68
2023/08/11 11:21:30;;;;;;;4.30;2.15;;;31.70;98.20;;;;;;5019615;28;20029;-68
2023/08/11 11:23:56;;;;;;;3.28;2.05;;;30.80;99.20;;;;;;5019485;28;20084;-68
2023/08/11 11:26:29;;;;;;;6.13;2.50;;;30.00;99.90;;;;;;5019952;28;20033;-68
2023/08/11 11:28:58;;;;;;;6.57;2.10;;;29.70;99.90;;;;;;5020277;28;20032;-68
2023/08/11 11:31:25;;;;;;;3.92;1.92;;;29.80;99.90;;;;;;5019836;28;20034;-68
2023/08/11 11:33:51;;;;;;;5.05;2.13;;;30.10;99.90;;;;;;5019351;28;20025;-68
2023/08/11 11:36:21;;;;;;;2.10;1.90;;;31.90;98.40;;;;;;5019628;28;20080;-69
2023/08/11 11:38:47;;;;;;;2.75;2.20;;;32.10;97.00;;;;;;5019389;28;20026;-68
2023/08/11 11:41:15;;;;;;;3.65;2.30;;;31.70;96.50;;;;;;5020431;28;20029;-68
2023/08/11 11:43:42;;;;;;;4.00;1.90;;;30.80;97.40;;;;;;5020214;28;20049;-68
2023/08/11 11:46:14;;;;;;;5.68;2.30;;;30.60;97.70;;;;;;5019160;28;20022;-68
2023/08/11 11:48:44;;;;;;;4.40;2.25;;;30.90;99.70;;;;;;5019521;28;20022;-68
2023/08/11 11:51:14;;;;;;;4.38;2.22;;;31.90;97.80;;;;;;5019989;28;20034;-68
2023/08/11 11:53:42;;;;;;;4.57;2.33;;;32.40;96.30;;;;;;5019999;28;20037;-68
2023/08/11 11:56:08;;;;;;;3.47;2.08;;;31.70;95.10;;;;;;5020100;28;20034;-68
2023/08/11 11:58:38;;;;;;;4.43;2.15;;;31.90;95.30;;;;;;5019718;28;20094;-68
2023/08/11 12:01:20;;;;;;;8.43;2.60;;;31.70;95.50;;;;;;5019765;28;20018;-68
2023/08/11 12:03:50;;;;;;;4.38;2.10;;;33.30;94.60;;;;;;5019675;28;20022;-68
2023/08/11 12:06:20;;;;;;;4.20;1.98;;;34.50;91.40;;;;;;5020096;28;20030;-68
2023/08/11 12:08:48;;;;;;;4.18;1.83;;;34.80;90.60;;;;;;5017346;28;20041;-68
2023/08/11 12:11:16;;;;;;;3.85;2.08;;;35.10;88.80;;;;;;5018762;28;20030;-68
2023/08/11 12:13:44;;;;;;;4.05;2.30;;;34.80;86.20;;;;;;5019569;28;20060;-68
2023/08/11 12:16:12;;;;;;;4.40;2.30;;;33.20;89.80;;;;;;5018763;28;20026;-68
2023/08/11 12:18:39;;;;;;;4.88;2.25;;;32.70;91.20;;;;;;5018995;28;20026;-68
2023/08/11 12:21:06;;;;;;;4.75;2.20;;;32.40;90.70;;;;;;5019472;28;20111;-68
2023/08/11 12:23:32;;;;;;;8.18;2.78;;;33.30;89.50;;;;;;5018476;28;20079;-68
2023/08/11 12:25:58;;;;;;;6.45;2.53;;;34.10;86.80;;;;;;5018823;28;20026;-68
2023/08/11 12:28:23;;;;;;;4.47;2.35;;;33.60;88.90;;;;;;5018948;28;20022;-68
2023/08/11 12:30:49;;;;;;;2.58;2.22;;;33.10;87.80;;;;;;5018447;28;20037;-68
2023/08/11 12:33:16;;;;;;;8.82;2.08;;;32.90;87.90;;;;;;5018554;28;20022;-68
2023/08/11 12:35:42;;;;;;;3.45;1.98;;;32.50;90.50;;;;;;5018241;28;20057;-68
2023/08/11 12:38:12;;;;;;;2.90;2.40;;;32.70;88.90;;;;;;5018239;28;20080;-68
2023/08/11 12:40:42;;;;;;;5.18;2.50;;;34.20;86.90;;;;;;5018630;28;20026;-68
2023/08/11 12:43:09;;;;;;;3.10;2.17;;;34.20;87.00;;;;;;5018987;28;20084;-68
2023/08/11 12:45:35;;;;;;;3.65;2.28;;;33.60;86.00;;;;;;5018926;28;20018;-68